Time;durP1;ratioP1;P1;durP2;ratioP2;P2;SDS_P1;SDS_P2;PMS_P1;PMS_P2;Temp;Humidity;BMP_temperature;BMP_pressure;BME280_temperature;BME280_humidity;BME280_pressure;Samples;Min_cycle;Max_cycle;Signal;HPM_P1;HPM_P2
2022/01/24 00:01:58;;;;;;;6.20;1.10;;;23.70;73.20;;;;;;5038608;28;20829;-77
2022/01/24 00:04:26;;;;;;;6.00;1.17;;;23.70;72.40;;;;;;5034454;28;20323;-76
2022/01/24 00:06:54;;;;;;;4.03;1.00;;;23.70;73.60;;;;;;5035225;28;20557;-75
2022/01/24 00:09:24;;;;;;;2.33;0.93;;;23.70;73.50;;;;;;5034524;28;20184;-76
2022/01/24 00:17:29;;;;;;;4.03;1.27;;;23.70;73.20;;;;;;5035314;28;20231;-78
2022/01/24 00:28:14;;;;;;;2.83;0.90;;;23.90;70.40;;;;;;5044686;28;20241;-74
2022/01/24 00:30:42;;;;;;;7.77;1.17;;;23.90;70.00;;;;;;5036899;28;20638;-74
2022/01/24 00:33:09;;;;;;;4.37;0.97;;;24.00;69.90;;;;;;5033431;28;20176;-75
2022/01/24 00:35:37;;;;;;;2.20;0.60;;;24.00;67.90;;;;;;5037964;28;20598;-76
2022/01/24 00:38:04;;;;;;;6.93;0.90;;;24.20;68.10;;;;;;5037750;28;20195;-75
2022/01/24 00:40:39;;;;;;;4.00;1.00;;;24.30;66.70;;;;;;5035561;28;20235;-72
2022/01/24 00:49:20;;;;;;;3.83;0.70;;;24.60;63.60;;;;;;5035736;28;20275;-76
2022/01/24 00:54:42;;;;;;;2.13;0.63;;;24.60;64.30;;;;;;5036141;28;20207;-74
2022/01/24 00:56:49;;;;;;;4.03;0.97;;;24.50;63.00;;;;;;5036394;28;20184;-75
2022/01/24 00:59:16;;;;;;;2.93;0.80;;;24.50;63.80;;;;;;5033260;28;20263;-73
2022/01/24 01:01:44;;;;;;;4.57;0.90;;;24.60;62.90;;;;;;5034881;28;20226;-74
2022/01/24 01:04:11;;;;;;;6.23;1.27;;;24.60;63.60;;;;;;5037519;28;20216;-74
2022/01/24 01:06:42;;;;;;;2.30;1.40;;;24.60;63.80;;;;;;5038548;28;20184;-72
2022/01/24 01:20:14;;;;;;;2.60;0.80;;;24.80;63.10;;;;;;5032839;28;20195;-74
2022/01/24 01:22:41;;;;;;;3.50;0.63;;;24.80;63.80;;;;;;5030388;28;20228;-71
2022/01/24 01:25:09;;;;;;;3.53;0.90;;;24.90;63.30;;;;;;5031655;28;20197;-75
2022/01/24 01:27:41;;;;;;;4.73;0.87;;;25.00;63.10;;;;;;5033446;28;20211;-73
2022/01/24 01:30:17;;;;;;;8.03;0.90;;;25.20;63.10;;;;;;5032033;28;20539;-74
2022/01/24 01:56:36;;;;;;;1.53;0.80;;;24.90;64.40;;;;;;5034590;28;20528;-75
2022/01/24 01:59:04;;;;;;;3.77;1.10;;;24.90;64.30;;;;;;5036157;28;20189;-73
2022/01/24 02:01:31;;;;;;;4.13;1.10;;;25.10;64.90;;;;;;5044215;28;20180;-75
2022/01/24 02:04:02;;;;;;;2.10;0.63;;;25.30;64.00;;;;;;5041373;28;20302;-74
2022/01/24 02:06:31;;;;;;;2.60;0.90;;;25.60;63.30;;;;;;5037156;28;20187;-76
2022/01/24 02:09:04;;;;;;;5.80;0.90;;;25.70;61.50;;;;;;5038605;28;20319;-75
2022/01/24 02:11:32;;;;;;;4.13;0.87;;;25.20;62.20;;;;;;5030469;28;20181;-74
2022/01/24 02:14:04;;;;;;;4.73;0.90;;;25.20;64.00;;;;;;5037033;28;20577;-74
2022/01/24 02:16:43;;;;;;;6.97;1.20;;;25.30;62.40;;;;;;5036987;28;20181;-76
2022/01/24 02:19:25;;;;;;;5.47;1.00;;;25.40;62.70;;;;;;5038322;28;20194;-77
2022/01/24 02:24:30;;;;;;;3.67;0.87;;;25.90;61.40;;;;;;5035619;28;20685;-80
2022/01/24 02:27:10;;;;;;;4.13;0.80;;;25.90;60.30;;;;;;5029755;28;20632;-74
2022/01/24 02:30:13;;;;;;;3.70;0.93;;;26.00;59.50;;;;;;5032221;28;20273;-74
2022/01/24 02:32:42;;;;;;;3.23;1.03;;;25.80;59.80;;;;;;5033287;28;20259;-76
2022/01/24 02:35:10;;;;;;;2.63;0.70;;;25.50;60.90;;;;;;5032315;28;20306;-78
2022/01/24 02:37:37;;;;;;;3.97;0.83;;;25.40;60.20;;;;;;5034272;28;20176;-75
2022/01/24 02:40:15;;;;;;;6.00;1.07;;;25.50;61.20;;;;;;5031005;28;20234;-75
2022/01/24 02:48:24;;;;;;;4.30;0.63;;;26.60;57.90;;;;;;5033237;28;20192;-74
2022/01/24 02:53:50;;;;;;;4.43;1.10;;;26.70;56.00;;;;;;5029557;28;20553;-74
2022/01/24 02:56:17;;;;;;;3.50;1.00;;;27.50;54.50;;;;;;5034482;28;20181;-74
2022/01/24 02:58:44;;;;;;;2.37;0.73;;;28.30;53.10;;;;;;5032299;28;20180;-70
2022/01/24 03:01:12;;;;;;;2.97;0.80;;;28.30;51.60;;;;;;5028049;28;20184;-81
2022/01/24 03:03:40;;;;;;;3.23;1.00;;;28.10;53.70;;;;;;5032293;28;20575;-72
2022/01/24 03:06:07;;;;;;;3.33;1.47;;;28.10;53.70;;;;;;5033301;28;20276;-75
2022/01/24 03:08:38;;;;;;;2.77;0.80;;;27.70;53.60;;;;;;5032394;28;20193;-73
2022/01/24 03:11:06;;;;;;;3.13;0.97;;;27.30;54.20;;;;;;5038854;28;20196;-78
2022/01/24 03:13:38;;;;;;;4.07;1.13;;;27.40;54.60;;;;;;5033746;28;20183;-75
2022/01/24 03:16:08;;;;;;;4.73;1.10;;;27.80;54.40;;;;;;5034162;28;20203;-77
2022/01/24 03:18:35;;;;;;;6.00;0.97;;;28.30;53.00;;;;;;5039224;28;20191;-78
2022/01/24 03:21:03;;;;;;;4.43;0.53;;;29.50;49.10;;;;;;5034670;28;20196;-75
2022/01/24 03:23:31;;;;;;;2.80;0.63;;;30.20;47.80;;;;;;5034255;28;20209;-77
2022/01/24 03:25:59;;;;;;;1.85;0.80;;;30.00;46.40;;;;;;5038188;28;20545;-77
2022/01/24 03:28:26;;;;;;;4.03;1.10;;;29.20;48.60;;;;;;5035935;28;20235;-80
2022/01/24 03:30:54;;;;;;;5.03;0.80;;;28.40;49.90;;;;;;5033270;28;20267;-80
2022/01/24 03:33:22;;;;;;;5.03;0.90;;;28.30;50.50;;;;;;5039545;28;20191;-73
2022/01/24 03:35:50;;;;;;;3.70;1.17;;;28.30;53.40;;;;;;5044418;28;20187;-77
2022/01/24 03:38:17;;;;;;;5.70;0.80;;;27.50;55.90;;;;;;5044686;28;20176;-78
2022/01/24 03:40:45;;;;;;;2.40;0.63;;;27.30;56.80;;;;;;5040672;28;20215;-80
2022/01/24 03:43:12;;;;;;;3.43;0.83;;;27.20;57.40;;;;;;5047109;28;20671;-75
2022/01/24 03:45:45;;;;;;;3.13;0.87;;;26.90;57.00;;;;;;5033347;28;20200;-76
2022/01/24 03:48:30;;;;;;;4.93;0.70;;;26.70;58.30;;;;;;5029822;28;20195;-76
2022/01/24 03:50:57;;;;;;;4.83;0.80;;;26.90;57.60;;;;;;5032331;28;20231;-78
2022/01/24 03:53:25;;;;;;;7.43;1.40;;;26.70;58.00;;;;;;5035558;28;20212;-76
2022/01/24 03:55:52;;;;;;;2.73;0.87;;;26.60;58.90;;;;;;5033153;28;20179;-76
2022/01/24 03:58:20;;;;;;;3.77;1.00;;;26.30;59.00;;;;;;5033694;28;20181;-77
2022/01/24 04:00:47;;;;;;;4.43;0.80;;;26.30;59.50;;;;;;5034378;28;20211;-74
2022/01/24 04:03:15;;;;;;;9.23;1.70;;;26.50;59.50;;;;;;5036251;28;20222;-75
2022/01/24 04:05:43;;;;;;;2.73;0.87;;;26.50;60.10;;;;;;5037428;28;20184;-83
2022/01/24 04:08:10;;;;;;;2.00;1.00;;;27.50;58.00;;;;;;5035802;28;20259;-83
2022/01/24 04:10:57;;;;;;;1.50;0.70;;;28.10;56.80;;;;;;5035454;28;20238;-76
2022/01/24 04:13:30;;;;;;;2.13;1.00;;;27.80;57.60;;;;;;5030145;28;20279;-80
2022/01/24 04:21:27;;;;;;;9.50;1.13;;;27.70;58.50;;;;;;5038775;28;20242;-74
2022/01/24 04:26:28;;;;;;;4.33;0.63;;;27.20;58.70;;;;;;5038441;28;20194;-74
2022/01/24 04:28:57;;;;;;;5.53;0.83;;;27.60;57.40;;;;;;5034743;28;20561;-73
2022/01/24 04:31:25;;;;;;;3.97;0.80;;;27.40;58.10;;;;;;5036616;28;20180;-73
2022/01/24 04:33:53;;;;;;;3.37;0.93;;;27.60;57.20;;;;;;5037094;28;20235;-78
2022/01/24 04:36:22;;;;;;;5.57;0.87;;;28.10;54.70;;;;;;5036036;28;20712;-78
2022/01/24 04:38:50;;;;;;;4.03;1.30;;;28.30;55.50;;;;;;5036888;28;20192;-78
2022/01/24 04:41:22;;;;;;;3.67;0.80;;;28.30;55.60;;;;;;5031263;28;20184;-76
2022/01/24 04:43:59;;;;;;;3.67;1.00;;;28.20;55.00;;;;;;5024241;28;20312;-78
2022/01/24 04:54:38;;;;;;;3.33;1.03;;;27.70;55.10;;;;;;5042171;28;20184;-76
2022/01/24 04:57:03;;;;;;;3.03;0.90;;;28.30;54.70;;;;;;5035059;28;20738;-74
2022/01/24 04:59:30;;;;;;;2.40;0.70;;;29.70;50.90;;;;;;5041605;28;20164;-74
2022/01/24 05:01:58;;;;;;;3.25;0.80;;;30.30;49.50;;;;;;5034261;28;20789;-72
2022/01/24 05:04:25;;;;;;;4.30;1.02;;;29.40;51.10;;;;;;5034699;28;20208;-73
2022/01/24 05:06:53;;;;;;;2.88;0.70;;;30.10;49.40;;;;;;5037929;28;20185;-78
2022/01/24 05:09:21;;;;;;;3.40;0.70;;;30.50;48.20;;;;;;5041458;28;20520;-76
2022/01/24 05:11:58;;;;;;;6.03;1.00;;;30.50;48.10;;;;;;5034592;28;20203;-75
2022/01/24 05:25:27;;;;;;;3.42;0.70;;;29.00;51.20;;;;;;5033941;28;20203;-76
2022/01/24 05:27:54;;;;;;;2.83;0.73;;;29.40;50.60;;;;;;5039609;28;20242;-77
2022/01/24 05:30:22;;;;;;;8.27;0.90;;;30.20;49.20;;;;;;5032375;28;20176;-74
2022/01/24 05:32:49;;;;;;;4.75;1.13;;;29.30;51.20;;;;;;5034937;28;20216;-74
2022/01/24 05:35:17;;;;;;;2.83;1.45;;;28.60;52.50;;;;;;5036195;28;20781;-75
2022/01/24 05:37:44;;;;;;;2.78;1.10;;;28.70;52.90;;;;;;5033593;28;20256;-74
2022/01/24 05:40:15;;;;;;;4.53;1.00;;;29.00;52.30;;;;;;5031456;28;20305;-80
2022/01/24 05:42:42;;;;;;;4.25;1.05;;;29.40;52.60;;;;;;5039129;28;20200;-78
2022/01/24 05:45:10;;;;;;;2.83;0.93;;;31.00;49.00;;;;;;5033516;28;20202;-75
2022/01/24 05:47:38;;;;;;;8.63;1.60;;;31.50;47.30;;;;;;5032282;28;20204;-87
2022/01/24 05:50:06;;;;;;;5.82;1.20;;;30.10;51.30;;;;;;5032457;28;20189;-79
2022/01/24 05:52:34;;;;;;;2.47;1.05;;;30.20;51.30;;;;;;5035215;28;20179;-78
2022/01/24 05:55:02;;;;;;;4.13;1.08;;;29.30;53.10;;;;;;5039329;28;20172;-74
2022/01/24 05:57:30;;;;;;;3.60;0.80;;;28.30;56.10;;;;;;5038504;28;20189;-83
2022/01/24 05:59:58;;;;;;;6.63;2.17;;;28.00;56.60;;;;;;5033369;28;20183;-79
2022/01/24 06:02:26;;;;;;;7.83;2.63;;;27.60;58.10;;;;;;5031004;28;20608;-78
2022/01/24 06:04:54;;;;;;;4.10;1.50;;;27.40;58.50;;;;;;5035969;28;20211;-72
2022/01/24 06:07:21;;;;;;;5.80;1.10;;;27.40;58.80;;;;;;5030095;28;20227;-75
2022/01/24 06:09:49;;;;;;;5.60;1.40;;;27.30;59.40;;;;;;5032086;28;20184;-72
2022/01/24 06:12:16;;;;;;;7.70;1.50;;;26.50;62.10;;;;;;5031884;28;20520;-75
2022/01/24 06:14:44;;;;;;;6.50;1.50;;;26.30;63.70;;;;;;5032491;28;20227;-73
2022/01/24 06:17:11;;;;;;;4.77;1.20;;;26.50;63.30;;;;;;5031470;28;20551;-74
2022/01/24 06:19:40;;;;;;;4.63;1.43;;;26.20;64.50;;;;;;5032812;28;20176;-72
2022/01/24 06:22:08;;;;;;;8.30;1.90;;;26.10;65.00;;;;;;5032978;28;20242;-74
2022/01/24 06:24:35;;;;;;;10.43;2.20;;;25.90;66.10;;;;;;5034576;28;20274;-74
2022/01/24 06:27:03;;;;;;;3.80;1.47;;;25.80;66.10;;;;;;5030454;28;20177;-76
2022/01/24 06:29:33;;;;;;;4.33;1.37;;;25.90;65.20;;;;;;5028968;28;20184;-75
2022/01/24 06:32:01;;;;;;;6.33;1.50;;;25.80;65.60;;;;;;5034946;28;20233;-78
2022/01/24 06:34:28;;;;;;;6.87;1.40;;;25.50;65.60;;;;;;5037052;28;20627;-75
2022/01/24 06:36:55;;;;;;;9.33;1.30;;;25.60;65.40;;;;;;5036196;28;20263;-74
2022/01/24 06:39:23;;;;;;;5.63;1.20;;;25.20;65.90;;;;;;5037148;28;20431;-73
2022/01/24 06:42:05;;;;;;;5.57;1.40;;;25.10;66.50;;;;;;5036285;28;20185;-73
2022/01/24 06:44:32;;;;;;;2.40;1.10;;;25.30;66.30;;;;;;5030929;28;20216;-71
2022/01/24 06:47:00;;;;;;;5.73;1.27;;;25.50;65.60;;;;;;5033773;28;20643;-75
2022/01/24 06:49:27;;;;;;;4.27;1.33;;;25.40;65.80;;;;;;5033408;28;20188;-72
2022/01/24 06:51:55;;;;;;;5.50;1.30;;;25.20;67.20;;;;;;5032198;28;20177;-75
2022/01/24 06:54:22;;;;;;;5.13;1.30;;;25.50;67.20;;;;;;5032021;28;20177;-76
2022/01/24 06:56:50;;;;;;;7.40;1.10;;;26.60;63.40;;;;;;5032435;28;20241;-74
2022/01/24 06:59:17;;;;;;;2.80;1.07;;;27.30;61.40;;;;;;5033766;28;20259;-72
2022/01/24 07:01:44;;;;;;;3.67;1.17;;;26.80;61.80;;;;;;5048676;28;20173;-73
2022/01/24 07:04:12;;;;;;;5.10;2.00;;;26.90;61.60;;;;;;5047326;28;20268;-73
2022/01/24 07:06:39;;;;;;;4.97;2.00;;;26.70;62.60;;;;;;5050778;28;20203;-73
2022/01/24 07:09:07;;;;;;;6.87;1.50;;;25.80;65.40;;;;;;5041047;28;20184;-76
2022/01/24 07:11:34;;;;;;;6.10;1.30;;;25.50;65.80;;;;;;5045305;28;20172;-73
2022/01/24 07:14:06;;;;;;;5.07;1.60;;;25.10;67.80;;;;;;5033324;28;20191;-72
2022/01/24 07:17:01;;;;;;;7.43;1.67;;;24.60;69.30;;;;;;5036827;28;20192;-72
2022/01/24 07:19:29;;;;;;;9.93;1.67;;;24.50;69.50;;;;;;5035705;28;20200;-72
2022/01/24 07:21:59;;;;;;;6.33;1.57;;;24.20;70.60;;;;;;5034756;28;20219;-71
2022/01/24 07:24:27;;;;;;;6.40;1.77;;;24.30;70.10;;;;;;5034960;28;20736;-72
2022/01/24 07:26:54;;;;;;;5.30;1.50;;;24.30;70.10;;;;;;5034327;28;20177;-74
2022/01/24 07:29:23;;;;;;;8.63;1.70;;;24.30;69.80;;;;;;5032201;28;20177;-72
2022/01/24 07:31:51;;;;;;;6.00;1.50;;;24.30;69.80;;;;;;5033697;28;20720;-75
2022/01/24 07:34:18;;;;;;;7.83;1.77;;;25.00;68.00;;;;;;5035242;28;20177;-72
2022/01/24 07:36:45;;;;;;;10.47;4.73;;;25.20;66.70;;;;;;5034772;28;20295;-72
2022/01/24 07:39:14;;;;;;;8.03;1.97;;;25.30;66.50;;;;;;5035595;28;20220;-74
2022/01/24 07:41:46;;;;;;;5.90;1.53;;;24.80;68.60;;;;;;5035063;28;20188;-73
2022/01/24 07:44:15;;;;;;;9.60;1.30;;;24.60;69.70;;;;;;5032811;28;20228;-74
2022/01/24 07:46:43;;;;;;;6.60;1.73;;;24.70;69.40;;;;;;5036908;28;20605;-75
2022/01/24 07:49:12;;;;;;;9.40;1.50;;;24.90;68.40;;;;;;5035605;28;20183;-73
2022/01/24 07:51:41;;;;;;;6.30;1.00;;;24.60;67.60;;;;;;5035647;28;20639;-78
2022/01/24 07:54:09;;;;;;;6.33;1.60;;;24.40;67.90;;;;;;5034404;28;20188;-73
2022/01/24 07:56:37;;;;;;;6.67;1.60;;;24.40;68.20;;;;;;5033537;28;20532;-72
2022/01/24 07:59:05;;;;;;;6.00;1.60;;;24.00;69.20;;;;;;5031086;28;20184;-72
2022/01/24 08:01:33;;;;;;;6.80;2.03;;;24.30;68.50;;;;;;5033261;28;20184;-71
2022/01/24 08:04:01;;;;;;;8.67;1.70;;;24.20;68.80;;;;;;5035667;28;20347;-70
2022/01/24 08:06:28;;;;;;;6.83;1.43;;;23.90;69.80;;;;;;5032911;28;20185;-71
2022/01/24 08:08:56;;;;;;;5.27;1.27;;;23.90;70.20;;;;;;5034581;28;20181;-72
2022/01/24 08:11:23;;;;;;;7.97;2.53;;;23.80;70.40;;;;;;5034374;28;20203;-71
2022/01/24 08:13:52;;;;;;;7.17;1.50;;;23.60;71.50;;;;;;5035226;28;20177;-71
2022/01/24 08:16:19;;;;;;;6.97;1.80;;;23.50;72.00;;;;;;5035933;28;20177;-71
2022/01/24 08:18:51;;;;;;;8.03;1.73;;;23.30;73.00;;;;;;5036396;28;20202;-71
2022/01/24 08:21:20;;;;;;;9.90;1.80;;;23.30;73.40;;;;;;5031434;28;20208;-71
2022/01/24 08:23:48;;;;;;;6.83;1.43;;;23.30;73.60;;;;;;5034089;28;20204;-72
2022/01/24 08:26:15;;;;;;;9.03;2.03;;;23.10;73.60;;;;;;5032398;28;20176;-72
2022/01/24 08:28:43;;;;;;;10.40;1.77;;;23.00;73.90;;;;;;5033403;28;20547;-70
2022/01/24 08:31:11;;;;;;;12.23;2.30;;;22.90;74.20;;;;;;5029136;28;20191;-73
2022/01/24 08:33:38;;;;;;;7.33;1.60;;;22.90;74.20;;;;;;5038134;28;20231;-75
2022/01/24 08:36:06;;;;;;;10.70;2.30;;;22.80;73.90;;;;;;5031643;28;20382;-74
2022/01/24 08:38:35;;;;;;;9.33;1.90;;;22.90;74.10;;;;;;5033425;28;20186;-74
2022/01/24 08:41:10;;;;;;;7.00;1.83;;;22.80;74.80;;;;;;5033676;28;20207;-75
2022/01/24 08:43:51;;;;;;;14.93;2.07;;;22.90;74.90;;;;;;5033961;28;20629;-77
2022/01/24 08:46:19;;;;;;;5.97;1.80;;;22.80;74.90;;;;;;5034197;28;20200;-75
2022/01/24 08:48:47;;;;;;;5.30;1.37;;;22.80;74.40;;;;;;5032665;28;20191;-77
2022/01/24 08:51:15;;;;;;;5.70;1.67;;;22.80;74.40;;;;;;5034205;28;20181;-75
2022/01/24 08:53:42;;;;;;;9.33;2.10;;;22.70;75.00;;;;;;5032607;28;20694;-75
2022/01/24 08:56:13;;;;;;;7.30;1.63;;;22.60;75.50;;;;;;5033743;28;20180;-76
2022/01/24 08:58:41;;;;;;;7.83;1.90;;;22.60;75.70;;;;;;5036003;28;20178;-77
2022/01/24 09:01:08;;;;;;;9.10;1.90;;;22.50;75.80;;;;;;5031550;28;20559;-76
2022/01/24 09:03:39;;;;;;;10.97;2.17;;;22.40;76.40;;;;;;5030363;28;20609;-75
2022/01/24 09:06:07;;;;;;;5.63;1.63;;;22.40;76.30;;;;;;5031378;28;20200;-78
2022/01/24 09:08:35;;;;;;;13.27;2.07;;;22.30;75.70;;;;;;5032061;28;20180;-78
2022/01/24 09:11:04;;;;;;;6.23;1.60;;;22.40;76.00;;;;;;5046703;28;20362;-80
2022/01/24 09:13:32;;;;;;;10.33;1.80;;;22.40;76.20;;;;;;5031920;28;20173;-79
2022/01/24 09:16:00;;;;;;;9.73;1.80;;;22.40;76.50;;;;;;5033860;28;20192;-78
2022/01/24 09:18:30;;;;;;;8.73;1.30;;;22.40;76.20;;;;;;5035899;28;20181;-74
2022/01/24 09:20:58;;;;;;;12.77;1.93;;;22.30;76.50;;;;;;5035590;28;20191;-76
2022/01/24 09:23:25;;;;;;;8.10;1.87;;;22.30;76.90;;;;;;5036307;28;20556;-77
2022/01/24 09:25:53;;;;;;;7.90;1.90;;;22.30;77.20;;;;;;5037054;28;20181;-77
2022/01/24 09:28:20;;;;;;;9.40;1.83;;;22.30;77.40;;;;;;5035857;28;20260;-77
2022/01/24 09:30:48;;;;;;;9.77;2.47;;;22.30;78.00;;;;;;5028938;28;20184;-74
2022/01/24 09:33:15;;;;;;;7.37;1.80;;;22.20;78.20;;;;;;5038638;28;20169;-75
2022/01/24 09:35:43;;;;;;;9.53;1.43;;;22.20;78.50;;;;;;5040532;28;20192;-76
2022/01/24 09:38:12;;;;;;;13.23;2.13;;;22.10;78.70;;;;;;5030624;28;20635;-74
2022/01/24 09:40:40;;;;;;;8.03;1.60;;;22.10;78.70;;;;;;5036618;28;20255;-74
2022/01/24 09:43:10;;;;;;;9.93;2.83;;;22.10;78.30;;;;;;5038501;28;20201;-76
2022/01/24 09:45:38;;;;;;;9.67;1.70;;;22.10;78.20;;;;;;5037852;28;20196;-78
2022/01/24 09:48:06;;;;;;;7.40;1.73;;;22.10;78.40;;;;;;5037707;28;20218;-79
2022/01/24 09:50:33;;;;;;;8.77;1.80;;;22.10;78.80;;;;;;5036148;28;20195;-74
2022/01/24 09:53:01;;;;;;;11.10;2.10;;;22.00;79.10;;;;;;5034494;28;20230;-78
2022/01/24 09:55:29;;;;;;;8.17;1.60;;;22.10;79.20;;;;;;5037835;28;20582;-76
2022/01/24 09:57:59;;;;;;;9.00;1.80;;;22.10;79.30;;;;;;5034726;28;20180;-75
2022/01/24 10:00:29;;;;;;;11.27;2.10;;;22.10;79.30;;;;;;5035177;28;20543;-76
2022/01/24 10:02:58;;;;;;;10.80;2.30;;;22.10;79.50;;;;;;5036425;28;20204;-78
2022/01/24 10:05:33;;;;;;;9.20;1.67;;;22.10;79.30;;;;;;5039099;28;20169;-75
2022/01/24 10:08:05;;;;;;;10.13;2.03;;;22.20;79.40;;;;;;5033189;28;20298;-75
2022/01/24 10:10:49;;;;;;;12.57;2.63;;;22.20;79.10;;;;;;5029503;28;20183;-78
2022/01/24 10:16:47;;;;;;;11.47;2.00;;;22.20;78.60;;;;;;5030796;28;20557;-76
2022/01/24 10:19:18;;;;;;;8.20;1.97;;;22.20;78.00;;;;;;5032005;28;20798;-77
2022/01/24 10:21:48;;;;;;;11.57;1.33;;;22.10;78.60;;;;;;5030705;28;20176;-76
2022/01/24 10:24:44;;;;;;;12.87;2.13;;;22.10;78.70;;;;;;5032155;28;20602;-78
2022/01/24 10:27:17;;;;;;;8.97;1.90;;;22.00;79.10;;;;;;5030205;28;20181;-76
2022/01/24 10:29:52;;;;;;;10.87;2.00;;;22.00;79.20;;;;;;5033748;28;20196;-75
2022/01/24 10:32:42;;;;;;;7.27;1.60;;;22.00;78.70;;;;;;5034396;28;20180;-76
2022/01/24 10:35:30;;;;;;;8.67;1.57;;;22.00;78.80;;;;;;5032364;28;20291;-79
2022/01/24 10:38:34;;;;;;;10.47;1.83;;;22.00;79.00;;;;;;5031031;28;20271;-76
2022/01/24 10:41:21;;;;;;;6.27;1.70;;;22.00;79.10;;;;;;5034650;28;20204;-77
2022/01/24 10:43:52;;;;;;;7.23;1.70;;;22.00;78.30;;;;;;5034138;28;20302;-79
2022/01/24 10:46:27;;;;;;;11.27;1.97;;;21.90;77.90;;;;;;5034173;28;20532;-74
2022/01/24 10:49:15;;;;;;;9.60;2.07;;;21.90;77.20;;;;;;5035551;28;20175;-77
2022/01/24 10:51:47;;;;;;;9.70;1.73;;;21.90;76.90;;;;;;5029072;28;20185;-79
2022/01/24 10:54:28;;;;;;;9.20;1.87;;;22.00;75.90;;;;;;5031538;28;20832;-76
2022/01/24 10:56:56;;;;;;;12.77;2.17;;;22.00;76.20;;;;;;5032047;28;20181;-76
2022/01/24 10:59:25;;;;;;;7.50;1.60;;;22.00;76.20;;;;;;5035373;28;20180;-79
2022/01/24 11:01:58;;;;;;;10.77;1.67;;;22.00;76.20;;;;;;5035661;28;20227;-77
2022/01/24 11:04:27;;;;;;;15.07;2.73;;;22.00;75.90;;;;;;5033500;28;20213;-77
2022/01/24 11:06:57;;;;;;;10.47;2.27;;;22.00;76.00;;;;;;5035518;28;20177;-76
2022/01/24 11:09:36;;;;;;;12.53;2.30;;;22.00;76.00;;;;;;5033785;28;20512;-74
2022/01/24 11:12:10;;;;;;;7.63;1.53;;;22.00;76.00;;;;;;5035007;28;20188;-75
2022/01/24 11:14:44;;;;;;;11.17;1.60;;;22.00;75.40;;;;;;5032697;28;20660;-75
2022/01/24 11:17:15;;;;;;;15.13;2.13;;;22.00;75.50;;;;;;5033080;28;20168;-80
2022/01/24 11:19:50;;;;;;;14.23;2.23;;;22.00;75.40;;;;;;5035506;28;20686;-76
2022/01/24 11:22:24;;;;;;;9.07;2.20;;;22.00;75.10;;;;;;5034203;28;20179;-77
2022/01/24 11:24:58;;;;;;;11.87;2.30;;;22.00;75.40;;;;;;5044487;28;20211;-79
2022/01/24 11:27:26;;;;;;;10.70;1.80;;;22.10;74.50;;;;;;5035373;28;20642;-80
2022/01/24 11:30:17;;;;;;;11.87;2.13;;;22.10;74.80;;;;;;5036837;28;20669;-77
2022/01/24 11:33:07;;;;;;;16.43;1.90;;;22.10;75.20;;;;;;5036239;28;20187;-78
2022/01/24 11:35:38;;;;;;;10.40;1.80;;;22.00;75.20;;;;;;5034627;28;20682;-78
2022/01/24 11:38:29;;;;;;;8.13;1.87;;;22.00;75.40;;;;;;5034827;28;20185;-78
2022/01/24 11:41:03;;;;;;;5.57;1.87;;;22.00;75.50;;;;;;5034334;28;20270;-77
2022/01/24 11:43:41;;;;;;;11.43;2.17;;;22.00;75.60;;;;;;5030549;28;20225;-77
2022/01/24 11:46:37;;;;;;;12.17;2.20;;;22.00;75.40;;;;;;5034511;28;20169;-77
2022/01/24 11:49:27;;;;;;;11.00;1.80;;;21.90;75.60;;;;;;5036279;28;20200;-76
2022/01/24 11:52:15;;;;;;;9.00;1.60;;;21.90;75.40;;;;;;5033882;28;20177;-77
2022/01/24 11:55:00;;;;;;;13.57;2.80;;;21.90;75.90;;;;;;5034400;28;20651;-77
2022/01/24 11:57:41;;;;;;;13.43;2.23;;;22.00;76.00;;;;;;5033165;28;20181;-76
2022/01/24 12:00:09;;;;;;;11.40;1.90;;;22.00;75.80;;;;;;5034629;28;20172;-77
2022/01/24 12:02:49;;;;;;;11.17;2.10;;;22.00;75.80;;;;;;5034110;28;20177;-77
2022/01/24 12:05:28;;;;;;;12.03;2.00;;;22.00;76.10;;;;;;5034550;28;20189;-77
2022/01/24 12:08:03;;;;;;;7.73;1.70;;;22.00;75.90;;;;;;5030752;28;20176;-74
2022/01/24 12:10:36;;;;;;;10.10;2.20;;;22.00;75.50;;;;;;5034732;28;20207;-77
2022/01/24 12:13:18;;;;;;;11.20;2.33;;;22.20;74.60;;;;;;5033135;28;20272;-74
2022/01/24 12:15:45;;;;;;;10.80;2.53;;;22.20;73.90;;;;;;5029797;28;20186;-74
2022/01/24 12:18:24;;;;;;;15.30;1.87;;;22.30;73.80;;;;;;5034392;28;20177;-76
2022/01/24 12:21:04;;;;;;;14.60;1.70;;;22.30;73.60;;;;;;5033267;28;20176;-76
2022/01/24 12:23:36;;;;;;;11.83;1.77;;;22.30;73.60;;;;;;5029142;28;20208;-79
2022/01/24 12:26:08;;;;;;;12.93;2.07;;;22.30;73.80;;;;;;5033979;28;20186;-78
2022/01/24 12:28:48;;;;;;;14.50;2.27;;;22.30;73.80;;;;;;5035392;28;20172;-76
2022/01/24 12:31:33;;;;;;;14.83;1.97;;;22.40;74.00;;;;;;5033438;28;20277;-78
2022/01/24 12:34:08;;;;;;;8.70;1.77;;;22.30;74.00;;;;;;5033741;28;20188;-76
2022/01/24 12:36:49;;;;;;;13.00;2.10;;;22.30;73.70;;;;;;5033557;28;20238;-75
2022/01/24 12:39:17;;;;;;;11.03;1.87;;;22.30;73.10;;;;;;5031492;28;20204;-77
2022/01/24 12:42:00;;;;;;;14.03;2.27;;;22.40;72.70;;;;;;5032553;28;20192;-76
2022/01/24 12:47:15;;;;;;;13.23;2.13;;;22.30;72.00;;;;;;5034388;28;20175;-75
2022/01/24 12:49:45;;;;;;;14.37;1.90;;;22.30;72.10;;;;;;5032787;28;20195;-76
2022/01/24 12:52:22;;;;;;;12.27;1.73;;;22.30;72.60;;;;;;5035479;28;20176;-77
2022/01/24 12:54:57;;;;;;;9.67;1.87;;;22.30;72.90;;;;;;5034449;28;20181;-78
2022/01/24 12:57:39;;;;;;;8.20;1.47;;;22.30;73.10;;;;;;5037002;28;20254;-77
2022/01/24 13:00:09;;;;;;;14.13;1.90;;;22.30;72.90;;;;;;5039141;28;20177;-77
2022/01/24 13:02:38;;;;;;;9.50;1.90;;;22.30;73.10;;;;;;5034393;28;20179;-76
2022/01/24 13:05:36;;;;;;;12.30;1.80;;;22.30;72.90;;;;;;5038613;28;20180;-78
2022/01/24 13:08:04;;;;;;;10.60;1.90;;;22.30;73.10;;;;;;5033181;28;20274;-75
2022/01/24 13:10:32;;;;;;;10.27;1.77;;;22.30;72.80;;;;;;5033110;28;20185;-73
2022/01/24 13:13:13;;;;;;;8.93;1.80;;;22.30;72.90;;;;;;5032959;28;20184;-75
2022/01/24 13:21:25;;;;;;;14.53;2.13;;;22.30;72.70;;;;;;5038049;28;20673;-74
2022/01/24 13:24:00;;;;;;;11.97;4.93;;;22.30;72.80;;;;;;5032894;28;20223;-75
2022/01/24 13:26:28;;;;;;;7.97;3.30;;;22.30;73.00;;;;;;5029867;28;20657;-75
2022/01/24 13:29:05;;;;;;;13.30;2.73;;;22.30;73.00;;;;;;5032050;28;20196;-78
2022/01/24 13:31:34;;;;;;;10.67;4.30;;;22.50;72.50;;;;;;5032750;28;20639;-75
2022/01/24 13:34:08;;;;;;;12.93;2.87;;;22.50;72.30;;;;;;5025024;28;20537;-77
2022/01/24 13:36:35;;;;;;;12.17;2.57;;;22.50;72.50;;;;;;5036224;28;20340;-78
2022/01/24 13:39:03;;;;;;;7.30;1.83;;;22.50;72.70;;;;;;5032444;28;20240;-78
2022/01/24 13:41:30;;;;;;;11.67;1.70;;;22.40;73.10;;;;;;5035658;28;20706;-76
2022/01/24 13:44:00;;;;;;;16.77;2.10;;;22.40;72.70;;;;;;5034205;28;20221;-76
2022/01/24 13:46:32;;;;;;;11.30;1.67;;;22.40;72.40;;;;;;5032480;28;20660;-74
2022/01/24 13:49:02;;;;;;;10.53;2.00;;;22.50;72.00;;;;;;5032767;28;20635;-77
2022/01/24 13:51:36;;;;;;;8.67;1.70;;;22.40;72.20;;;;;;5031296;28;20208;-75
2022/01/24 13:54:09;;;;;;;14.53;2.77;;;22.50;72.10;;;;;;5030903;28;20202;-76
2022/01/24 13:56:48;;;;;;;11.00;1.63;;;22.40;72.40;;;;;;5046636;28;20231;-73
2022/01/24 13:59:20;;;;;;;12.57;2.03;;;22.40;72.30;;;;;;5030208;28;20488;-75
2022/01/24 14:01:55;;;;;;;7.43;1.30;;;22.50;72.20;;;;;;5033130;28;20216;-75
2022/01/24 14:04:29;;;;;;;8.60;2.03;;;22.40;72.50;;;;;;5030060;28;20217;-74
2022/01/24 14:07:02;;;;;;;9.70;1.73;;;22.40;72.10;;;;;;5029801;28;20657;-73
2022/01/24 14:09:40;;;;;;;11.37;2.20;;;22.40;72.20;;;;;;5032212;28;20183;-77
2022/01/24 14:12:12;;;;;;;7.70;1.80;;;22.40;72.30;;;;;;5032572;28;20184;-77
2022/01/24 14:14:47;;;;;;;6.30;1.63;;;22.30;72.40;;;;;;5034177;28;20251;-78
2022/01/24 14:19:52;;;;;;;11.90;2.13;;;22.30;72.70;;;;;;5033135;28;20184;-77
2022/01/24 14:22:20;;;;;;;11.57;2.10;;;22.30;72.80;;;;;;5035207;28;20646;-76
2022/01/24 14:24:58;;;;;;;14.67;1.93;;;22.30;72.70;;;;;;5035532;28;20278;-75
2022/01/24 14:27:43;;;;;;;8.80;2.07;;;22.30;72.90;;;;;;5034042;28;20706;-75
2022/01/24 14:30:14;;;;;;;11.33;1.73;;;22.30;73.00;;;;;;5034795;28;20261;-75
2022/01/24 14:33:02;;;;;;;15.30;2.53;;;22.30;72.60;;;;;;5045347;28;20191;-74
2022/01/24 14:35:35;;;;;;;14.53;2.27;;;22.30;72.60;;;;;;5031002;28;20176;-76
2022/01/24 14:38:02;;;;;;;10.33;1.83;;;22.20;72.80;;;;;;5032159;28;20177;-75
2022/01/24 14:40:49;;;;;;;9.70;1.70;;;22.20;72.90;;;;;;5046697;28;20231;-76
2022/01/24 14:46:19;;;;;;;13.13;1.67;;;22.10;73.10;;;;;;5032285;28;20239;-77
2022/01/24 14:48:48;;;;;;;8.47;1.80;;;22.10;73.10;;;;;;5028210;28;20180;-78
2022/01/24 14:51:20;;;;;;;11.97;2.53;;;22.10;73.20;;;;;;5031660;28;20181;-77
2022/01/24 14:53:47;;;;;;;11.37;2.00;;;22.10;73.40;;;;;;5028114;28;20597;-76
2022/01/24 14:56:15;;;;;;;7.80;1.67;;;22.00;73.30;;;;;;5029732;28;20203;-77
2022/01/24 14:58:43;;;;;;;9.33;1.73;;;22.00;73.00;;;;;;5032117;28;20550;-76